METAR Data
IDs: Format: Raw Decoded Include TAF

Data at: 1416 UTC 10 Aug 2022

KBLH 101352Z AUTO 19003KT 10SM CLR 29/21 A2993 RMK AO2 SLP128 T02940206 TSNO
KBLH 101252Z AUTO 15003KT 10SM CLR 29/19 A2990 RMK AO2 SLP119 T02940194 TSNO
KBLH 101152Z AUTO 19003KT 10SM CLR 29/20 A2989 RMK AO2 SLP114 T02890200 10333 20283 53006 TSNO
KBLH 101052Z AUTO 18010KT 10SM CLR 31/21 A2988 RMK AO2 SLP110 T03060206 TSNO
KBLH 100952Z AUTO 00000KT 10SM CLR 30/22 A2987 RMK AO2 SLP109 T03000222 TSNO
KBLH 100852Z AUTO 00000KT 10SM CLR 30/23 A2987 RMK AO2 SLP107 T03000233 51003 TSNO
KBLH 100752Z AUTO 00000KT 10SM CLR 31/23 A2987 RMK AO2 SLP106 T03060228 403940267 TSNO
KBLH 100652Z AUTO 00000KT 10SM CLR 32/22 A2987 RMK AO2 SLP107 T03170222 TSNO
KBLH 100552Z AUTO 00000KT 10SM CLR 33/22 A2986 RMK AO2 SLP104 T03330217 10361 20328 51016 TSNO
KBLH 100452Z AUTO 27003KT 10SM CLR 33/21 A2986 RMK AO2 SLP104 T03330211 TSNO
KBLH 100352Z AUTO 00000KT 10SM CLR 34/22 A2983 RMK AO2 SLP095 T03390217 TSNO
KBLH 100252Z AUTO 36003KT 10SM CLR 34/21 A2981 RMK AO2 SLP088 T03440206 53002 TSNO
KBLH 100152Z AUTO 00000KT 10SM CLR 36/19 A2981 RMK AO2 SLP087 T03560194 TSNO
KBLH 100052Z AUTO 01005KT 10SM CLR 36/20 A2980 RMK AO2 SLPNO T03560200 TSNO
KBLH 092352Z AUTO 02003KT 10SM CLR 33/20 A2981 RMK AO2 SLP087 60000 T03330200 10394 20311 58013 TSNO
KBLH 092252Z AUTO 00000KT 10SM CLR 31/22 A2983 RMK AO2 RAB07E34 SLP094 P0000 T03110217 TSNO
KBLH 092152Z AUTO 26008G18KT 10SM FEW095 33/21 A2988 RMK AO2 PK WND 07030/2116 WSHFT 2103 SLP112 T03280211 TSNO
KBLH 092123Z AUTO 10019G30KT 10SM SCT110 35/21 A2984 RMK AO2 PK WND 07030/2116 WSHFT 2103 T03500206 TSNO
KBLH 092052Z AUTO 11009KT 10SM FEW110 39/19 A2985 RMK AO2 SLP100 T03890194 58022 TSNO
KBLH 091952Z AUTO 10SM CLR 38/19 A2987 RMK AO2 SLP108 T03780189 TSNO
KBLH 091852Z AUTO 12006KT 10SM CLR 37/19 A2990 RMK AO2 SLP116 T03670194 TSNO
KBLH 091752Z AUTO 14004KT 10SM CLR 36/20 A2991 RMK AO2 SLP122 T03560200 10356 20267 50002 TSNO
KBLH 091652Z AUTO 11004KT 10SM CLR 32/21 A2992 RMK AO2 SLP124 T03220211 TSNO
KBLH 091552Z AUTO 00000KT 8SM CLR 31/22 A2992 RMK AO2 SLP123 T03060222 TSNO
KBLH 091452Z AUTO VRB03KT 7SM FEW110 28/23 A2991 RMK AO2 SLP121 T02830228 TSNO $
KBLH 091352Z AUTO 09011KT 10SM BKN100 27/23 A2991 RMK AO2 PRESRR SLP119 T02720233 TSNO $
KBLH 091152Z AUTO 00000KT 10SM CLR 28/23 A2986 RMK AO2 SLP103 70015 T02780228 10306 20278 53005 TSNO
KBLH 091052Z AUTO 18003KT 10SM CLR 29/22 A2985 RMK AO2 SLP101 T02890222 TSNO
KBLH 090952Z AUTO 24005KT 10SM CLR 29/22 A2984 RMK AO2 SLP098 T02940217 TSNO
KBLH 090852Z AUTO 25005KT 10SM CLR 29/22 A2984 RMK AO2 SLP099 T02940217 58003 TSNO
KBLH 090752Z AUTO 25008KT 10SM CLR 29/22 A2985 RMK AO2 SLP101 T02940222 403560261 TSNO
KBLH 090652Z AUTO 25006KT 10SM CLR 30/22 A2985 RMK AO2 SLP101 T03000217 TSNO
KBLH 090552Z AUTO 25009KT 10SM CLR 30/22 A2985 RMK AO2 WSHFT 0450 SLP101 T03000222 10350 20294 50008 TSNO
KBLH 090510Z AUTO 27005KT 10SM CLR 31/21 A2986 RMK AO2 WSHFT 0450 T03060206 TSNO
KBLH 090452Z AUTO 25015G19KT 10SM CLR 31/21 A2987 RMK AO2 SLP107 T03060211 TSNO
KBLH 090352Z AUTO 24007KT 10SM CLR 31/21 A2985 RMK AO2 SLP099 T03110211 TSNO
KBLH 090252Z AUTO 21010KT 10SM CLR 32/22 A2983 RMK AO2 SLP092 T03220217 55001 TSNO